FMCZ Airport Information

Runway Information
Runway 16 Length 6330 ft width 92 ft
Elevation 10 ft Threshold 250 ft Heading 150
Runway 34 Length 6330 ft Width 92 ft
Elevation 23 ft Threshold 0 ft Heading 330
Airport Frequencies
Type AFIS Name AFIS Frequency 119.2 MHZ
Airport Navaids
Type VOR-DME Name Dzaoudzi Pamandzi Frequency 113500 KHZ
Type NDB Name Dzaoudzi Pamandzi Frequency 341 KHZ
Airport Weather Information & NOTAM
ADDS - METARS form results

(1758 UTC 25 March 2019)
Data provider http://aviationweather.gov/metar/data/
 
METAR text: FMCZ 251730Z AUTO 28003KT 260V330 9999 ///CB 28/25 Q1010 NOSIG
Conditions at: FMCZ (DZAOUDZI/PAMANZI, KM) observed 1730 UTC 25 March 2019
Temperature: 28.0°C (82°F)
Dewpoint: 25.0°C (77°F) [RH = 84%]
Pressure (altimeter): 29.82 inches Hg (1010.0 mb)
Winds: from the W (280 degrees) at 3 MPH (3 knots; 1.5 m/s)
Visibility: 6 or more miles (10+ km)
Ceiling: unknown
Clouds: missing
Weather: no significant weather observed at this time

METAR text: FMCZ 251700Z AUTO 34002KT 9999 ///CB 28/25 Q1010 NOSIG
Conditions at: FMCZ (DZAOUDZI/PAMANZI, KM) observed 1700 UTC 25 March 2019
Temperature: 28.0°C (82°F)
Dewpoint: 25.0°C (77°F) [RH = 84%]
Pressure (altimeter): 29.82 inches Hg (1010.0 mb)
Winds: from the NNW (340 degrees) at 2 MPH (2 knots; 1.0 m/s)
Visibility: 6 or more miles (10+ km)
Ceiling: unknown
Clouds: missing
Weather: no significant weather observed at this time

Forecast for: FMCZ (DZAOUDZI/PAMANZI, KM)
Text: TAF FMCZ 251700Z 2518/2618 VRB05KT 9999 FEW018CB SCT022
Forecast period: 1800 UTC 25 March 2019 to 1800 UTC 26 March 2019
Forecast type: FROM: standard forecast or significant change
Winds: variable direction winds at 6 MPH (5 knots; 2.6 m/s)
Visibility: 6 or more miles 10+ km)
Ceiling: at least 12,000 feet AGL
Clouds: few clouds at 1800 feet AGL
scattered clouds at 2200 feet AGL
Weather: no significant weather forecast for this period
Text: PROB30
Forecast period: 0800 to 1400 UTC 26 March 2019
Forecast type: TEMPORARY: The following changes expected for less than half the time period
Visibility: 2.49 miles (4.01 km)
Ceiling: at least 12,000 feet AGL
Clouds: few clouds at 1800 feet AGL
scattered clouds at 2200 feet AGL
Weather: SHRA  (rain showers)